Time;durP1;ratioP1;P1;durP2;ratioP2;P2;SDS_P1;SDS_P2;PMS_P1;PMS_P2;Temp;Humidity;BMP_temperature;BMP_pressure;BME280_temperature;BME280_humidity;BME280_pressure;Samples;Min_cycle;Max_cycle;Signal;HPM_P1;HPM_P2
2023/06/07 00:00:23;;;;;;;26.60;24.40;;;;;;;;;;5063389;28;20465;-85
2023/06/07 00:02:50;;;;;;;26.53;24.40;;;;;;;;;;5063138;28;20460;-86
2023/06/07 00:05:20;;;;;;;25.97;24.17;;;;;;;;;;5063667;28;20449;-86
2023/06/07 00:07:48;;;;;;;26.20;24.40;;;;;;;;;;5062325;28;20916;-86
2023/06/07 00:10:15;;;;;;;27.23;24.87;;;;;;;;;;5063518;28;20478;-86
2023/06/07 00:12:43;;;;;;;26.67;24.80;;;;;;;;;;5063592;28;20449;-86
2023/06/07 00:15:10;;;;;;;26.13;24.00;;;;;;;;;;5063544;28;20454;-86
2023/06/07 00:17:40;;;;;;;26.50;24.73;;;;;;;;;;5063537;28;20456;-86
2023/06/07 00:20:09;;;;;;;25.80;23.87;;;;;;;;;;5062594;28;20559;-87
2023/06/07 00:22:37;;;;;;;25.57;23.57;;;;;;;;;;5062783;28;20449;-87
2023/06/07 00:25:06;;;;;;;25.50;23.60;;;;;;;;;;5061447;28;20585;-87
2023/06/07 00:27:33;;;;;;;27.80;25.40;;;;;;;;;;5062081;28;20479;-87
2023/06/07 00:30:00;;;;;;;28.07;25.80;;;;;;;;;;5062838;28;20541;-87
2023/06/07 00:32:27;;;;;;;27.27;25.27;;;;;;;;;;5062947;28;20833;-87
2023/06/07 00:34:54;;;;;;;27.97;25.97;;;;;;;;;;5063717;28;20434;-87
2023/06/07 00:37:21;;;;;;;26.60;24.90;;;;;;;;;;5062506;28;20492;-86
2023/06/07 00:39:48;;;;;;;27.63;25.60;;;;;;;;;;5063574;28;20474;-85
2023/06/07 00:42:16;;;;;;;26.00;24.20;;;;;;;;;;5062564;28;20520;-87
2023/06/07 00:44:43;;;;;;;26.50;24.50;;;;;;;;;;5062067;28;20490;-87
2023/06/07 00:47:10;;;;;;;26.67;24.47;;;;;;;;;;5060517;28;20923;-85
2023/06/07 00:49:37;;;;;;;26.33;24.17;;;;;;;;;;5060238;28;20601;-86
2023/06/07 00:52:04;;;;;;;26.40;23.83;;;;;;;;;;5059306;28;20441;-86
2023/06/07 00:54:31;;;;;;;25.50;23.47;;;;;;;;;;5059112;28;20913;-86
2023/06/07 00:56:58;;;;;;;24.80;23.20;;;;;;;;;;5059358;28;20496;-86
2023/06/07 00:59:27;;;;;;;25.20;23.33;;;;;;;;;;5059238;28;20472;-86
2023/06/07 01:01:55;;;;;;;26.23;23.93;;;;;;;;;;5061366;28;20426;-87
2023/06/07 01:04:23;;;;;;;23.87;22.10;;;;;;;;;;5061682;28;20846;-86
2023/06/07 01:06:52;;;;;;;25.70;23.70;;;;;;;;;;5059754;28;20430;-86
2023/06/07 01:09:19;;;;;;;25.50;23.70;;;;;;;;;;5060102;28;20455;-85
2023/06/07 01:11:47;;;;;;;25.27;23.23;;;;;;;;;;5059558;28;20468;-86
2023/06/07 01:14:15;;;;;;;24.73;23.03;;;;;;;;;;5060875;28;20448;-85
2023/06/07 01:16:44;;;;;;;27.13;24.70;;;;;;;;;;5059580;28;21008;-85
2023/06/07 01:19:16;;;;;;;25.17;23.30;;;;;;;;;;5061500;28;20444;-85
2023/06/07 01:21:44;;;;;;;27.63;24.63;;;;;;;;;;5066083;28;20459;-85
2023/06/07 01:24:13;;;;;;;24.90;23.30;;;;;;;;;;5062750;28;20550;-86
2023/06/07 01:26:40;;;;;;;25.80;23.80;;;;;;;;;;5061106;28;20463;-85
2023/06/07 01:29:07;;;;;;;24.23;22.37;;;;;;;;;;5062576;28;20437;-86
2023/06/07 01:31:35;;;;;;;25.17;23.47;;;;;;;;;;5060067;28;20481;-86
2023/06/07 01:34:03;;;;;;;24.87;23.17;;;;;;;;;;5061830;28;20454;-86
2023/06/07 01:36:30;;;;;;;24.83;22.90;;;;;;;;;;5061057;28;20459;-85
2023/06/07 01:38:59;;;;;;;24.67;23.07;;;;;;;;;;5063634;28;21008;-86
2023/06/07 01:41:28;;;;;;;26.07;23.70;;;;;;;;;;5063549;28;20480;-86
2023/06/07 01:43:55;;;;;;;24.97;23.27;;;;;;;;;;5061162;28;20481;-86
2023/06/07 01:46:22;;;;;;;27.03;25.10;;;;;;;;;;5061126;28;20456;-86
2023/06/07 01:48:49;;;;;;;23.60;21.80;;;;;;;;;;5060933;28;20456;-86
2023/06/07 01:51:16;;;;;;;24.53;22.70;;;;;;;;;;5059869;28;20533;-85
2023/06/07 01:53:44;;;;;;;25.30;23.60;;;;;;;;;;5060095;28;20936;-85
2023/06/07 01:56:14;;;;;;;25.67;23.60;;;;;;;;;;5060282;28;20511;-86
2023/06/07 01:58:50;;;;;;;26.70;24.30;;;;;;;;;;5063537;28;20499;-86
2023/06/07 02:01:19;;;;;;;24.90;23.20;;;;;;;;;;5067537;28;20547;-86
2023/06/07 02:03:51;;;;;;;25.17;23.20;;;;;;;;;;5063957;28;20480;-86
2023/06/07 02:06:20;;;;;;;25.47;23.60;;;;;;;;;;5060069;28;20579;-85
2023/06/07 02:08:49;;;;;;;25.70;23.80;;;;;;;;;;5060234;28;21003;-85
2023/06/07 02:11:16;;;;;;;25.73;24.00;;;;;;;;;;5059733;28;20475;-85
2023/06/07 02:13:45;;;;;;;26.90;24.90;;;;;;;;;;5059025;28;20468;-85
2023/06/07 02:16:12;;;;;;;32.03;29.63;;;;;;;;;;5058872;28;20513;-85
2023/06/07 02:18:41;;;;;;;31.27;29.03;;;;;;;;;;5060406;28;20446;-86
2023/06/07 02:21:08;;;;;;;30.07;27.90;;;;;;;;;;5059862;28;20475;-86
2023/06/07 02:23:35;;;;;;;29.60;27.00;;;;;;;;;;5060143;28;20455;-85
2023/06/07 02:26:02;;;;;;;28.63;26.53;;;;;;;;;;5059779;28;20433;-85
2023/06/07 02:28:29;;;;;;;30.57;28.27;;;;;;;;;;5059547;28;20432;-85
2023/06/07 02:30:58;;;;;;;33.27;30.77;;;;;;;;;;5058806;28;20476;-85
2023/06/07 02:33:25;;;;;;;33.40;30.00;;;;;;;;;;5060303;28;20467;-86
2023/06/07 02:35:52;;;;;;;33.57;30.47;;;;;;;;;;5059508;28;20444;-85
2023/06/07 02:38:19;;;;;;;32.10;29.70;;;;;;;;;;5059218;28;20863;-86
2023/06/07 02:40:47;;;;;;;36.37;33.70;;;;;;;;;;5059680;28;20473;-85
2023/06/07 02:43:14;;;;;;;38.20;35.43;;;;;;;;;;5060190;28;20928;-84
2023/06/07 02:45:41;;;;;;;38.17;35.13;;;;;;;;;;5059704;28;20458;-86
2023/06/07 02:48:09;;;;;;;40.57;37.50;;;;;;;;;;5060706;28;20445;-85
2023/06/07 02:50:36;;;;;;;37.77;34.97;;;;;;;;;;5059200;28;20966;-84
2023/06/07 02:53:06;;;;;;;37.23;33.93;;;;;;;;;;5061500;28;20486;-85
2023/06/07 02:55:32;;;;;;;37.97;34.67;;;;;;;;;;5063406;28;20448;-85
2023/06/07 02:58:00;;;;;;;34.10;31.30;;;;;;;;;;5063427;28;20479;-85
2023/06/07 03:00:27;;;;;;;35.33;32.73;;;;;;;;;;5063097;28;20797;-85
2023/06/07 03:02:54;;;;;;;32.70;30.13;;;;;;;;;;5062498;28;20456;-85
2023/06/07 03:05:22;;;;;;;32.77;30.07;;;;;;;;;;5062751;28;20481;-85
2023/06/07 03:07:50;;;;;;;32.50;29.90;;;;;;;;;;5062585;28;20426;-85
2023/06/07 03:10:17;;;;;;;32.93;30.47;;;;;;;;;;5063146;28;20466;-85
2023/06/07 03:12:44;;;;;;;31.50;28.90;;;;;;;;;;5062814;28;20615;-85
2023/06/07 03:15:11;;;;;;;33.70;29.60;;;;;;;;;;5062905;28;20437;-86
2023/06/07 03:17:40;;;;;;;32.20;29.70;;;;;;;;;;5062971;28;20440;-85
2023/06/07 03:20:08;;;;;;;28.93;26.73;;;;;;;;;;5062877;28;20562;-86
2023/06/07 03:22:37;;;;;;;32.10;29.40;;;;;;;;;;5063376;28;20437;-85
2023/06/07 03:25:04;;;;;;;29.73;26.93;;;;;;;;;;5062219;28;20456;-86
2023/06/07 03:27:34;;;;;;;29.57;27.47;;;;;;;;;;5062513;28;20513;-85
2023/06/07 03:30:01;;;;;;;29.83;27.17;;;;;;;;;;5063296;28;20852;-85
2023/06/07 03:32:28;;;;;;;31.57;28.83;;;;;;;;;;5063314;28;20462;-85
2023/06/07 03:34:55;;;;;;;28.50;25.83;;;;;;;;;;5063045;28;20470;-86
2023/06/07 03:37:22;;;;;;;28.73;26.60;;;;;;;;;;5062472;28;20830;-86
2023/06/07 03:39:56;;;;;;;28.47;26.03;;;;;;;;;;5062397;28;20453;-85
2023/06/07 03:42:23;;;;;;;35.03;32.23;;;;;;;;;;5063277;28;20419;-85
2023/06/07 03:44:50;;;;;;;63.37;58.67;;;;;;;;;;5061722;28;20461;-85
2023/06/07 03:47:17;;;;;;;68.40;63.00;;;;;;;;;;5061363;28;20950;-86
2023/06/07 03:49:44;;;;;;;73.70;68.70;;;;;;;;;;5062670;28;20823;-87
2023/06/07 03:52:11;;;;;;;71.67;67.10;;;;;;;;;;5061869;28;20466;-84
2023/06/07 03:54:38;;;;;;;72.87;67.53;;;;;;;;;;5059309;28;20440;-83
2023/06/07 03:57:07;;;;;;;75.00;70.50;;;;;;;;;;5059307;28;20497;-84
2023/06/07 03:59:34;;;;;;;76.30;71.27;;;;;;;;;;5070374;28;20522;-80
2023/06/07 04:02:03;;;;;;;75.40;70.53;;;;;;;;;;5074129;28;20954;-82
2023/06/07 04:04:32;;;;;;;73.23;67.97;;;;;;;;;;5073298;28;20558;-80
2023/06/07 04:07:00;;;;;;;71.93;66.53;;;;;;;;;;5064654;28;20478;-87
2023/06/07 04:09:27;;;;;;;76.30;70.97;;;;;;;;;;5064389;28;20443;-87
2023/06/07 04:11:54;;;;;;;76.87;71.97;;;;;;;;;;5062607;28;20454;-83
2023/06/07 04:14:23;;;;;;;74.23;69.03;;;;;;;;;;5059572;28;20455;-85
2023/06/07 04:16:50;;;;;;;75.87;70.73;;;;;;;;;;5058863;28;20907;-84
2023/06/07 04:19:17;;;;;;;73.13;68.23;;;;;;;;;;5062205;28;20474;-87
2023/06/07 04:21:44;;;;;;;76.33;70.83;;;;;;;;;;5064819;28;20852;-87
2023/06/07 04:24:11;;;;;;;80.73;75.47;;;;;;;;;;5064177;28;20457;-84
2023/06/07 04:26:38;;;;;;;77.77;72.10;;;;;;;;;;5059602;28;20474;-83
2023/06/07 04:29:05;;;;;;;60.80;55.80;;;;;;;;;;5060802;28;20509;-83
2023/06/07 04:31:34;;;;;;;62.50;57.77;;;;;;;;;;5059025;28;20470;-83
2023/06/07 04:34:02;;;;;;;65.57;61.37;;;;;;;;;;5059537;28;20458;-83
2023/06/07 04:36:29;;;;;;;64.57;60.00;;;;;;;;;;5059598;28;20447;-83
2023/06/07 04:38:56;;;;;;;63.60;59.20;;;;;;;;;;5059316;28;20812;-83
2023/06/07 04:41:25;;;;;;;59.47;55.20;;;;;;;;;;5059135;28;20464;-83
2023/06/07 04:43:53;;;;;;;60.77;56.43;;;;;;;;;;5058754;28;20479;-83
2023/06/07 04:46:20;;;;;;;62.70;58.27;;;;;;;;;;5058536;28;20486;-83
2023/06/07 04:48:48;;;;;;;61.63;56.63;;;;;;;;;;5059507;28;20921;-82
2023/06/07 04:51:20;;;;;;;62.23;57.83;;;;;;;;;;5059568;28;20475;-83
2023/06/07 04:53:47;;;;;;;59.73;55.50;;;;;;;;;;5059557;28;20470;-82
2023/06/07 04:56:14;;;;;;;55.60;51.93;;;;;;;;;;5058755;28;20456;-83
2023/06/07 04:58:41;;;;;;;60.90;56.70;;;;;;;;;;5058635;28;20439;-82
2023/06/07 05:01:10;;;;;;;55.93;51.70;;;;;;;;;;5065717;28;21001;-83
2023/06/07 05:03:37;;;;;;;57.87;53.77;;;;;;;;;;5070784;28;20471;-82
2023/06/07 05:06:05;;;;;;;56.00;51.27;;;;;;;;;;5078210;28;20486;-83
2023/06/07 05:08:32;;;;;;;56.13;52.13;;;;;;;;;;5078253;28;20535;-83
2023/06/07 05:10:59;;;;;;;56.37;52.10;;;;;;;;;;5079301;28;20445;-82
2023/06/07 05:13:26;;;;;;;56.10;51.70;;;;;;;;;;5078971;28;20457;-82
2023/06/07 05:15:54;;;;;;;58.50;53.93;;;;;;;;;;5069848;28;20470;-82
2023/06/07 05:18:21;;;;;;;54.03;50.00;;;;;;;;;;5079212;28;20450;-83
2023/06/07 05:20:48;;;;;;;59.73;55.03;;;;;;;;;;5076735;28;20494;-82
2023/06/07 05:23:17;;;;;;;60.40;56.20;;;;;;;;;;5077690;28;20443;-84
2023/06/07 05:25:44;;;;;;;57.67;53.37;;;;;;;;;;5076993;28;20486;-82
2023/06/07 05:28:11;;;;;;;57.10;52.87;;;;;;;;;;5079725;28;20455;-82
2023/06/07 05:30:38;;;;;;;52.47;48.77;;;;;;;;;;5079076;28;20470;-82
2023/06/07 05:33:06;;;;;;;55.90;52.00;;;;;;;;;;5078565;28;20474;-83
2023/06/07 05:35:33;;;;;;;55.87;51.63;;;;;;;;;;5077429;28;20443;-82
2023/06/07 05:38:00;;;;;;;56.23;52.20;;;;;;;;;;5078090;28;20457;-82
2023/06/07 05:40:29;;;;;;;54.87;50.50;;;;;;;;;;5078807;28;20478;-83
2023/06/07 05:42:56;;;;;;;53.87;49.93;;;;;;;;;;5078951;28;20537;-83
2023/06/07 05:45:23;;;;;;;53.97;49.77;;;;;;;;;;5078079;28;20556;-83
2023/06/07 05:47:50;;;;;;;54.57;50.63;;;;;;;;;;5077377;28;20463;-84
2023/06/07 05:50:19;;;;;;;51.23;47.40;;;;;;;;;;5077021;28;20508;-84
2023/06/07 05:52:46;;;;;;;52.80;49.00;;;;;;;;;;5077442;28;20507;-83
2023/06/07 05:55:14;;;;;;;54.07;49.80;;;;;;;;;;5078911;28;20481;-83
2023/06/07 05:57:43;;;;;;;50.53;46.30;;;;;;;;;;5075795;28;20935;-83
2023/06/07 06:00:11;;;;;;;51.33;46.87;;;;;;;;;;5073617;28;20500;-82
2023/06/07 06:02:38;;;;;;;51.47;47.23;;;;;;;;;;5074062;28;20862;-83
2023/06/07 06:05:06;;;;;;;49.80;46.10;;;;;;;;;;5074100;28;20482;-84
2023/06/07 06:07:33;;;;;;;50.00;46.27;;;;;;;;;;5073531;28;20425;-84
2023/06/07 06:10:00;;;;;;;51.80;46.80;;;;;;;;;;5073991;28;20458;-86
2023/06/07 06:12:27;;;;;;;49.60;45.97;;;;;;;;;;5074977;28;20439;-83
2023/06/07 06:14:56;;;;;;;49.27;45.60;;;;;;;;;;5074807;28;20444;-83
2023/06/07 06:17:23;;;;;;;45.13;41.80;;;;;;;;;;5074949;28;20458;-86
2023/06/07 06:19:50;;;;;;;41.20;37.73;;;;;;;;;;5077971;28;20507;-85
2023/06/07 06:22:17;;;;;;;40.13;37.30;;;;;;;;;;5077168;28;20862;-85
2023/06/07 06:24:45;;;;;;;38.93;36.13;;;;;;;;;;5077415;28;20498;-85
2023/06/07 06:27:13;;;;;;;37.63;34.37;;;;;;;;;;5076900;28;20784;-85
2023/06/07 06:29:40;;;;;;;36.17;33.20;;;;;;;;;;5084056;28;20478;-85
2023/06/07 06:32:09;;;;;;;36.20;33.40;;;;;;;;;;5081469;28;20491;-85
2023/06/07 06:34:36;;;;;;;33.87;31.10;;;;;;;;;;5081402;28;20955;-84
2023/06/07 06:37:04;;;;;;;36.77;33.60;;;;;;;;;;5080496;28;20484;-85
2023/06/07 06:39:32;;;;;;;37.27;34.47;;;;;;;;;;5079705;28;20501;-85
2023/06/07 06:41:59;;;;;;;37.57;34.57;;;;;;;;;;5081297;28;20501;-84
2023/06/07 06:44:26;;;;;;;35.03;32.40;;;;;;;;;;5080790;28;20440;-84
2023/06/07 06:46:53;;;;;;;36.13;33.13;;;;;;;;;;5080211;28;21069;-84
2023/06/07 06:49:21;;;;;;;35.77;32.83;;;;;;;;;;5080086;28;20508;-84
2023/06/07 06:51:48;;;;;;;33.83;31.03;;;;;;;;;;5080550;28;20466;-84
2023/06/07 06:54:15;;;;;;;34.43;31.63;;;;;;;;;;5081033;28;20451;-84
2023/06/07 06:56:42;;;;;;;32.93;30.50;;;;;;;;;;5079456;28;20440;-84
2023/06/07 06:59:11;;;;;;;35.47;31.67;;;;;;;;;;5080638;28;20513;-84
2023/06/07 07:01:45;;;;;;;35.37;32.67;;;;;;;;;;5081879;28;20414;-85
2023/06/07 07:04:12;;;;;;;35.33;32.50;;;;;;;;;;5080440;28;20426;-84
2023/06/07 07:06:41;;;;;;;32.73;30.10;;;;;;;;;;5079658;28;21009;-83
2023/06/07 07:09:09;;;;;;;35.23;32.70;;;;;;;;;;5079514;28;20456;-87
2023/06/07 07:11:36;;;;;;;34.53;31.87;;;;;;;;;;5079363;28;20439;-83
2023/06/07 07:14:03;;;;;;;34.70;31.83;;;;;;;;;;5078477;28;20845;-83
2023/06/07 07:16:31;;;;;;;32.90;30.20;;;;;;;;;;5076986;28;20826;-82
2023/06/07 07:18:58;;;;;;;32.47;29.50;;;;;;;;;;5078559;28;20437;-83
2023/06/07 07:21:25;;;;;;;32.10;29.20;;;;;;;;;;5078577;28;20476;-83
2023/06/07 07:23:53;;;;;;;33.17;30.40;;;;;;;;;;5078267;28;20970;-84
2023/06/07 07:26:20;;;;;;;30.77;28.33;;;;;;;;;;5077851;28;20463;-83
2023/06/07 07:28:47;;;;;;;32.50;29.50;;;;;;;;;;5078555;28;20518;-83
2023/06/07 07:31:14;;;;;;;31.57;29.17;;;;;;;;;;5078326;28;20472;-82
2023/06/07 07:33:41;;;;;;;32.10;29.37;;;;;;;;;;5079248;28;20844;-85
2023/06/07 07:36:09;;;;;;;34.73;31.63;;;;;;;;;;5076617;28;20479;-83
2023/06/07 07:38:37;;;;;;;35.20;32.13;;;;;;;;;;5077011;28;20448;-85
2023/06/07 07:41:05;;;;;;;33.73;30.90;;;;;;;;;;5076680;28;20485;-83
2023/06/07 07:43:33;;;;;;;33.90;30.97;;;;;;;;;;5076865;28;20917;-85
2023/06/07 07:46:00;;;;;;;34.30;31.10;;;;;;;;;;5076367;28;20483;-82
2023/06/07 07:48:27;;;;;;;31.33;29.03;;;;;;;;;;5076935;28;20842;-81
2023/06/07 07:50:54;;;;;;;33.17;30.40;;;;;;;;;;5076152;28;20461;-83
2023/06/07 07:53:21;;;;;;;31.87;29.10;;;;;;;;;;5079261;28;20505;-76
2023/06/07 07:55:48;;;;;;;33.30;30.40;;;;;;;;;;5076590;28;20469;-84
2023/06/07 07:58:16;;;;;;;33.03;30.10;;;;;;;;;;5080092;28;20940;-80
2023/06/07 08:00:45;;;;;;;30.23;27.90;;;;;;;;;;5075482;28;20539;-89
2023/06/07 08:03:12;;;;;;;30.60;28.40;;;;;;;;;;5080838;28;20436;-89
2023/06/07 08:05:39;;;;;;;30.90;28.60;;;;;;;;;;5079880;28;20483;-88
2023/06/07 08:08:06;;;;;;;31.80;29.17;;;;;;;;;;5079099;28;20818;-88
2023/06/07 08:10:36;;;;;;;33.07;30.27;;;;;;;;;;5080625;28;20537;-88
2023/06/07 08:13:03;;;;;;;31.83;28.93;;;;;;;;;;5079654;28;20485;-88
2023/06/07 08:15:32;;;;;;;32.93;30.20;;;;;;;;;;5081312;28;20451;-87
2023/06/07 08:17:59;;;;;;;30.10;27.87;;;;;;;;;;5076983;28;20456;-87
2023/06/07 08:20:26;;;;;;;31.30;28.77;;;;;;;;;;5075385;28;20483;-78
2023/06/07 08:22:53;;;;;;;31.27;28.77;;;;;;;;;;5076039;28;20531;-78
2023/06/07 08:25:20;;;;;;;31.37;28.43;;;;;;;;;;5075708;28;20456;-78
2023/06/07 08:27:47;;;;;;;32.37;29.37;;;;;;;;;;5075322;28;20880;-78
2023/06/07 08:30:14;;;;;;;32.00;29.53;;;;;;;;;;5075529;28;20618;-78
2023/06/07 08:32:45;;;;;;;30.13;27.60;;;;;;;;;;5075887;28;20484;-78
2023/06/07 08:35:12;;;;;;;32.40;29.80;;;;;;;;;;5074672;28;20444;-77
2023/06/07 08:37:40;;;;;;;30.03;27.80;;;;;;;;;;5075622;28;20987;-81
2023/06/07 08:40:08;;;;;;;31.17;28.20;;;;;;;;;;5077602;28;20910;-79
2023/06/07 08:42:35;;;;;;;30.23;28.03;;;;;;;;;;5089255;28;20432;-80
2023/06/07 08:45:02;;;;;;;30.37;27.70;;;;;;;;;;5086202;28;20499;-81
2023/06/07 08:47:30;;;;;;;28.70;26.37;;;;;;;;;;5079572;28;20574;-80
2023/06/07 08:49:59;;;;;;;29.60;27.20;;;;;;;;;;5076604;28;20522;-83
2023/06/07 08:52:26;;;;;;;28.93;26.40;;;;;;;;;;5082774;28;20458;-84
2023/06/07 08:54:54;;;;;;;28.47;26.30;;;;;;;;;;5080700;28;20447;-79
2023/06/07 08:57:21;;;;;;;29.93;27.33;;;;;;;;;;5078038;28;20982;-85
2023/06/07 08:59:49;;;;;;;30.00;27.77;;;;;;;;;;5079482;28;20494;-81
2023/06/07 09:02:16;;;;;;;29.97;27.50;;;;;;;;;;5079686;28;20476;-89
2023/06/07 09:04:44;;;;;;;29.50;27.40;;;;;;;;;;5080043;28;20458;-90
2023/06/07 09:07:13;;;;;;;29.70;27.40;;;;;;;;;;5080077;28;20475;-88
2023/06/07 09:09:41;;;;;;;30.70;28.00;;;;;;;;;;5075962;28;20500;-75
2023/06/07 09:12:09;;;;;;;27.13;25.30;;;;;;;;;;5076807;28;20857;-85
2023/06/07 09:14:36;;;;;;;29.00;26.40;;;;;;;;;;5076797;28;20487;-81
2023/06/07 09:17:03;;;;;;;28.20;25.77;;;;;;;;;;5075559;28;20945;-84
2023/06/07 09:19:34;;;;;;;28.87;26.93;;;;;;;;;;5078045;28;20461;-79
2023/06/07 09:22:02;;;;;;;29.60;27.43;;;;;;;;;;5077771;28;20507;-81
2023/06/07 09:24:31;;;;;;;27.60;25.70;;;;;;;;;;5078831;28;20506;-84
2023/06/07 09:26:58;;;;;;;28.83;26.80;;;;;;;;;;5075813;28;21253;-84
2023/06/07 09:29:27;;;;;;;29.07;27.10;;;;;;;;;;5075475;28;20926;-83
2023/06/07 09:31:55;;;;;;;29.10;26.80;;;;;;;;;;5078508;28;20495;-86
2023/06/07 09:34:23;;;;;;;29.53;27.17;;;;;;;;;;5079559;28;20431;-80
2023/06/07 09:36:51;;;;;;;29.27;27.23;;;;;;;;;;5075996;28;20455;-80
2023/06/07 09:39:22;;;;;;;29.13;27.03;;;;;;;;;;5075876;28;20464;-78
2023/06/07 09:41:50;;;;;;;29.13;27.03;;;;;;;;;;5074447;28;20945;-77
2023/06/07 09:44:23;;;;;;;27.60;25.50;;;;;;;;;;5079435;28;20437;-77
2023/06/07 09:46:51;;;;;;;30.00;27.30;;;;;;;;;;5077194;28;20485;-79
2023/06/07 09:49:28;;;;;;;28.63;26.53;;;;;;;;;;5075434;28;20971;-76
2023/06/07 09:51:55;;;;;;;28.70;26.70;;;;;;;;;;5077625;28;20826;-78
2023/06/07 09:54:36;;;;;;;29.10;26.90;;;;;;;;;;5074863;28;20451;-80
2023/06/07 09:57:05;;;;;;;27.13;25.43;;;;;;;;;;5072145;28;20465;-78
2023/06/07 09:59:32;;;;;;;27.33;25.50;;;;;;;;;;5074677;28;20531;-77
2023/06/07 10:01:59;;;;;;;28.77;26.77;;;;;;;;;;5074148;28;21065;-78
2023/06/07 10:04:26;;;;;;;28.97;26.60;;;;;;;;;;5073939;28;20460;-78
2023/06/07 10:06:55;;;;;;;27.90;25.90;;;;;;;;;;5074413;28;20489;-78
2023/06/07 10:09:22;;;;;;;27.90;25.90;;;;;;;;;;5075442;28;20517;-82
2023/06/07 10:11:51;;;;;;;27.13;25.50;;;;;;;;;;5074221;28;20965;-78
2023/06/07 10:14:21;;;;;;;26.60;24.80;;;;;;;;;;5074240;28;20453;-85
2023/06/07 10:16:52;;;;;;;28.37;26.37;;;;;;;;;;5073827;28;20459;-79
2023/06/07 10:19:22;;;;;;;26.97;25.07;;;;;;;;;;5078531;28;20432;-80
2023/06/07 10:21:51;;;;;;;28.57;26.47;;;;;;;;;;5079627;28;20420;-77
2023/06/07 10:24:19;;;;;;;28.70;26.77;;;;;;;;;;5076762;28;20523;-81
2023/06/07 10:26:51;;;;;;;28.80;26.70;;;;;;;;;;5077021;28;20452;-79
2023/06/07 10:29:25;;;;;;;29.30;27.20;;;;;;;;;;5076577;28;20434;-79
2023/06/07 10:31:55;;;;;;;28.30;26.10;;;;;;;;;;5076564;28;20434;-78
2023/06/07 10:34:22;;;;;;;28.60;26.57;;;;;;;;;;5075685;28;20487;-80
2023/06/07 10:36:49;;;;;;;26.20;24.50;;;;;;;;;;5076239;28;20408;-80
2023/06/07 10:39:16;;;;;;;26.80;25.03;;;;;;;;;;5073580;28;20436;-77
2023/06/07 10:41:44;;;;;;;29.93;27.43;;;;;;;;;;5073243;28;20432;-78
2023/06/07 10:44:12;;;;;;;29.73;27.47;;;;;;;;;;5073973;28;20471;-78
2023/06/07 10:46:40;;;;;;;29.60;27.23;;;;;;;;;;5072639;28;20463;-78
2023/06/07 10:49:13;;;;;;;30.80;28.30;;;;;;;;;;5075115;28;20417;-83
2023/06/07 10:51:59;;;;;;;28.60;26.50;;;;;;;;;;5073779;28;20474;-86
2023/06/07 10:54:29;;;;;;;27.40;25.40;;;;;;;;;;5074561;28;20429;-79
2023/06/07 10:56:56;;;;;;;27.50;25.57;;;;;;;;;;5073736;28;20448;-81
2023/06/07 10:59:24;;;;;;;30.20;27.90;;;;;;;;;;5074023;28;20470;-92
2023/06/07 11:01:54;;;;;;;28.73;26.53;;;;;;;;;;5083857;28;20435;-90
2023/06/07 11:04:40;;;;;;;29.20;27.00;;;;;;;;;;5078725;28;20481;-91
2023/06/07 11:07:17;;;;;;;29.50;27.40;;;;;;;;;;5075788;28;20456;-86
2023/06/07 11:09:44;;;;;;;28.90;26.80;;;;;;;;;;5074840;28;20485;-81
2023/06/07 11:12:32;;;;;;;30.20;27.87;;;;;;;;;;5074039;28;20460;-82
2023/06/07 11:15:17;;;;;;;28.70;26.33;;;;;;;;;;5075880;28;20446;-80
2023/06/07 11:17:52;;;;;;;29.43;27.33;;;;;;;;;;5076663;28;20420;-80
2023/06/07 11:20:34;;;;;;;28.67;26.77;;;;;;;;;;5076989;28;20993;-81
2023/06/07 11:23:21;;;;;;;28.57;26.50;;;;;;;;;;5076386;28;20518;-81
2023/06/07 11:25:48;;;;;;;28.97;27.07;;;;;;;;;;5077245;28;20788;-80
2023/06/07 11:28:15;;;;;;;28.70;26.80;;;;;;;;;;5077272;28;20459;-81
2023/06/07 11:30:43;;;;;;;29.87;27.57;;;;;;;;;;5077354;28;20444;-80
2023/06/07 11:33:15;;;;;;;31.37;28.53;;;;;;;;;;5077016;28;20500;-80
2023/06/07 11:35:42;;;;;;;29.97;27.87;;;;;;;;;;5076764;28;20441;-89
2023/06/07 11:38:09;;;;;;;30.80;28.50;;;;;;;;;;5078459;28;20441;-87
2023/06/07 11:40:36;;;;;;;30.90;28.60;;;;;;;;;;5075959;28;20497;-81
2023/06/07 11:43:03;;;;;;;30.90;28.57;;;;;;;;;;5077338;28;20918;-81
2023/06/07 11:45:33;;;;;;;31.33;29.23;;;;;;;;;;5077012;28;20465;-81
2023/06/07 11:48:02;;;;;;;33.40;30.70;;;;;;;;;;5077097;28;20497;-80
2023/06/07 11:50:30;;;;;;;32.67;30.13;;;;;;;;;;5076689;28;20460;-80
2023/06/07 11:52:57;;;;;;;31.53;29.10;;;;;;;;;;5077159;28;20446;-80
2023/06/07 11:55:25;;;;;;;30.50;28.30;;;;;;;;;;5076603;28;20420;-79
2023/06/07 11:57:53;;;;;;;31.30;28.97;;;;;;;;;;5076635;28;20469;-80
2023/06/07 12:00:21;;;;;;;30.90;28.90;;;;;;;;;;5076039;28;20569;-80
2023/06/07 12:02:48;;;;;;;30.00;27.70;;;;;;;;;;5076491;28;20435;-80
2023/06/07 12:05:16;;;;;;;30.87;28.47;;;;;;;;;;5075484;28;20916;-80
2023/06/07 12:07:45;;;;;;;31.67;29.40;;;;;;;;;;5075528;28;20467;-81
2023/06/07 12:10:12;;;;;;;30.77;28.37;;;;;;;;;;5077011;28;20473;-79
2023/06/07 12:12:40;;;;;;;30.93;28.77;;;;;;;;;;5076380;28;20428;-80
2023/06/07 12:15:08;;;;;;;31.23;28.77;;;;;;;;;;5076642;28;20479;-89
2023/06/07 12:17:35;;;;;;;33.27;30.40;;;;;;;;;;5077610;28;20431;-83
2023/06/07 12:20:09;;;;;;;30.67;28.47;;;;;;;;;;5076674;28;20482;-83
2023/06/07 12:22:36;;;;;;;31.53;29.03;;;;;;;;;;5076789;28;20455;-83
2023/06/07 12:25:12;;;;;;;30.83;28.10;;;;;;;;;;5075626;28;20832;-81
2023/06/07 12:27:39;;;;;;;30.07;27.67;;;;;;;;;;5075981;28;20444;-82
2023/06/07 12:30:07;;;;;;;30.30;28.10;;;;;;;;;;5076405;28;20474;-79
2023/06/07 12:32:35;;;;;;;29.57;27.47;;;;;;;;;;5075724;28;20914;-82
2023/06/07 12:35:04;;;;;;;30.53;28.47;;;;;;;;;;5075886;28;20429;-81
2023/06/07 12:37:33;;;;;;;30.90;28.70;;;;;;;;;;5074222;28;20825;-76
2023/06/07 12:40:02;;;;;;;30.30;27.70;;;;;;;;;;5074406;28;20476;-75
2023/06/07 12:42:31;;;;;;;31.27;28.53;;;;;;;;;;5074396;28;20449;-75
2023/06/07 12:44:58;;;;;;;29.53;27.40;;;;;;;;;;5073966;28;20420;-75
2023/06/07 12:47:25;;;;;;;29.20;26.97;;;;;;;;;;5073809;28;20456;-76
2023/06/07 12:49:52;;;;;;;30.33;27.90;;;;;;;;;;5076272;28;20470;-77
2023/06/07 12:52:19;;;;;;;30.50;27.80;;;;;;;;;;5079599;28;20500;-77
2023/06/07 12:54:46;;;;;;;28.63;26.70;;;;;;;;;;5083934;28;20461;-76
2023/06/07 12:57:13;;;;;;;29.80;27.70;;;;;;;;;;5084838;28;20774;-75
2023/06/07 12:59:41;;;;;;;31.43;29.13;;;;;;;;;;5075472;28;21021;-75
2023/06/07 13:02:09;;;;;;;31.77;29.30;;;;;;;;;;5078431;28;20453;-75
2023/06/07 13:04:36;;;;;;;28.03;26.03;;;;;;;;;;5079902;28;20474;-75
2023/06/07 13:07:03;;;;;;;27.30;25.50;;;;;;;;;;5077492;28;20966;-87
2023/06/07 13:09:34;;;;;;;29.20;27.00;;;;;;;;;;5082157;28;20451;-86
2023/06/07 13:12:04;;;;;;;29.03;26.67;;;;;;;;;;5076688;28;20459;-75
2023/06/07 13:14:32;;;;;;;28.60;26.60;;;;;;;;;;5074899;28;20779;-75
2023/06/07 13:17:00;;;;;;;26.87;24.97;;;;;;;;;;5075201;28;20761;-76
2023/06/07 13:19:27;;;;;;;28.73;26.23;;;;;;;;;;5074766;28;20446;-76
2023/06/07 13:21:54;;;;;;;29.83;27.40;;;;;;;;;;5075436;28;20445;-75
2023/06/07 13:24:21;;;;;;;29.60;27.23;;;;;;;;;;5076412;28;21000;-78
2023/06/07 13:26:48;;;;;;;29.90;27.43;;;;;;;;;;5075974;28;20920;-76
2023/06/07 13:29:15;;;;;;;28.23;26.03;;;;;;;;;;5076665;28;20869;-78
2023/06/07 13:31:42;;;;;;;29.43;27.00;;;;;;;;;;5076004;28;20850;-77
2023/06/07 13:34:10;;;;;;;28.60;26.50;;;;;;;;;;5074393;28;20487;-74
2023/06/07 13:36:37;;;;;;;28.80;26.70;;;;;;;;;;5072515;28;20458;-75
2023/06/07 13:39:04;;;;;;;29.47;27.23;;;;;;;;;;5073692;28;20428;-75
2023/06/07 13:41:33;;;;;;;27.93;26.13;;;;;;;;;;5077189;28;20449;-75
2023/06/07 13:44:00;;;;;;;27.53;25.57;;;;;;;;;;5074415;28;20519;-75
2023/06/07 13:46:27;;;;;;;28.90;26.90;;;;;;;;;;5073807;28;20504;-75
2023/06/07 13:48:54;;;;;;;29.27;27.00;;;;;;;;;;5074209;28;20485;-76
2023/06/07 13:51:23;;;;;;;29.73;27.30;;;;;;;;;;5074113;28;20465;-75
2023/06/07 13:53:50;;;;;;;28.87;26.77;;;;;;;;;;5073650;28;20452;-75
2023/06/07 13:56:17;;;;;;;28.10;26.17;;;;;;;;;;5072954;28;20405;-75
2023/06/07 13:58:45;;;;;;;28.10;26.10;;;;;;;;;;5072205;28;20491;-75
2023/06/07 14:01:13;;;;;;;29.47;27.27;;;;;;;;;;5072604;28;20469;-75
2023/06/07 14:03:40;;;;;;;28.67;26.77;;;;;;;;;;5064752;28;20424;-75
2023/06/07 14:06:08;;;;;;;29.53;27.43;;;;;;;;;;5072285;28;20420;-75
2023/06/07 14:08:36;;;;;;;29.93;27.53;;;;;;;;;;5072814;28;20494;-75
2023/06/07 14:11:04;;;;;;;29.90;27.77;;;;;;;;;;5073034;28;20448;-76
2023/06/07 14:13:31;;;;;;;28.60;26.63;;;;;;;;;;5073778;28;20449;-75
2023/06/07 14:15:59;;;;;;;28.73;26.80;;;;;;;;;;5071985;28;20458;-75
2023/06/07 14:18:26;;;;;;;28.13;26.30;;;;;;;;;;5072018;28;20853;-75
2023/06/07 14:20:53;;;;;;;30.63;28.23;;;;;;;;;;5072459;28;20523;-75